Weather reports worldwide

Advertisment
Cerezo De Arriba, Spain (8143): temperature & dewpoint: 19.03.2019 18:00:00 - 25.03.2019 18:00:00 (CET)Cerezo De Arriba, Spain (8143): wind speed & gusts: 19.03.2019 18:00:00 - 25.03.2019 18:00:00 (CET)Cerezo De Arriba, Spain (8143): wind direction: 19.03.2019 18:00:00 - 25.03.2019 18:00:00 (CET)Cerezo De Arriba, Spain (8143): visibility: 19.03.2019 18:00:00 - 25.03.2019 18:00:00 (CET)Cerezo De Arriba, Spain (8143): sunshine duration: 19.03.2019 18:00:00 - 25.03.2019 18:00:00 (CET)Cerezo De Arriba, Spain (8143): precipitation: 19.03.2019 18:00:00 - 25.03.2019 18:00:00 (CET)
Date & Time tt [°C] td [°C] ff [km/h] ff [kn] fx [km/h] fx [kn] dd vv [km] sd [min] rr [mm]
25.03.2019 18:00:00 - - - - - - - - - -
25.03.2019 17:00:00 9,3 -7,1 18 10 34 18 N 20 60 0,0
25.03.2019 16:00:00 10,2 -6,0 16 8 39 21 N 20 60 0,0
25.03.2019 15:00:00 10,0 -6,7 16 9 37 20 N 20 60 0,0
25.03.2019 14:00:00 9,9 -7,5 16 9 32 17 N 20 60 0,0
25.03.2019 13:00:00 9,3 -6,7 17 9 33 18 NNE 20 60 -
25.03.2019 12:00:00 9,1 -4,2 11 6 28 15 N 20 60 0,0
25.03.2019 11:00:00 8,4 -3,9 7 4 19 11 NNE 20 60 0,0
25.03.2019 10:00:00 7,6 -3,0 9 5 11 6 SSE 20 46 0,0
25.03.2019 09:00:00 3,0 -4,2 8 4 11 6 SW 20 0 0,0
25.03.2019 08:00:00 3,2 -4,8 3 2 17 9 SW 20 0 0,0
25.03.2019 07:00:00 3,2 -5,1 7 4 14 8 SSE 20 0 -
25.03.2019 06:00:00 2,7 -4,8 11 6 23 13 S 20 0 0,0
25.03.2019 05:00:00 3,4 -4,8 6 4 31 17 S 20 0 0,0
25.03.2019 04:00:00 4,8 -5,4 23 12 34 19 S 20 0 0,0
25.03.2019 03:00:00 5,3 -5,1 29 16 37 20 SSE 20 0 0,0
25.03.2019 02:00:00 5,6 -4,8 30 16 44 24 SSE 20 0 0,0
25.03.2019 01:00:00 5,7 -4,8 27 15 52 28 SSE 20 0 -
25.03.2019 00:00:00 5,5 -4,2 24 13 55 30 SSE 20 0 0,0
24.03.2019 23:00:00 5,9 -3,9 20 11 44 24 S 20 0 0,0
24.03.2019 22:00:00 6,9 -7,5 9 5 24 13 ENE 20 0 0,0
24.03.2019 21:00:00 6,0 -7,1 9 5 21 12 SE 20 0 0,0
24.03.2019 20:00:00 7,0 -7,5 9 5 25 13 ESE 20 0 0,0
24.03.2019 19:00:00 8,4 -9,0 9 5 22 12 E 20 22 -
24.03.2019 18:00:00 10,8 -7,8 6 3 24 13 NNE 20 56 0,0
24.03.2019 17:00:00 10,1 -8,2 6 3 23 12 E 20 5 0,0
24.03.2019 16:00:00 12,1 -7,5 5 3 38 20 NNW 20 55 0,0
24.03.2019 15:00:00 12,2 -7,8 8 4 31 17 W 20 60 0,0
24.03.2019 14:00:00 11,3 -9,9 8 5 36 20 S 20 60 0,0
24.03.2019 13:00:00 10,7 -9,4 6 3 47 25 W 20 60 -
24.03.2019 12:00:00 9,3 -9,9 16 9 43 23 S 20 60 0,0
24.03.2019 11:00:00 8,9 -6,0 13 7 40 21 S 20 60 0,0
24.03.2019 10:00:00 7,7 -7,1 19 10 40 22 S 20 44 0,0
24.03.2019 09:00:00 5,0 -7,5 4 2 19 10 W 20 0 0,0
24.03.2019 08:00:00 4,5 -7,8 8 4 26 14 WSW 20 0 0,0
24.03.2019 07:00:00 5,0 -8,6 11 6 29 16 N 20 0 -
24.03.2019 06:00:00 4,1 -2,7 8 5 26 14 NW 20 0 0,0
24.03.2019 05:00:00 3,5 -2,0 5 3 24 13 NE 20 0 0,0
24.03.2019 04:00:00 4,7 -1,4 14 7 27 15 S 20 0 0,0
24.03.2019 03:00:00 4,3 -1,2 14 7 23 12 SSW 20 0 0,0
24.03.2019 02:00:00 4,8 -1,7 13 7 30 16 S 20 0 0,0
24.03.2019 01:00:00 4,8 -1,0 21 11 33 18 SSW 20 0 -
24.03.2019 00:00:00 5,2 -1,0 21 11 32 17 SSW 20 0 0,0
23.03.2019 23:00:00 5,5 -1,2 18 10 28 15 S 20 0 0,0
23.03.2019 22:00:00 5,6 -2,0 11 6 27 14 S 20 0 0,0
23.03.2019 21:00:00 5,8 -1,7 13 7 30 16 S 20 0 0,0
23.03.2019 20:00:00 6,8 -2,2 17 9 34 18 SSW 20 0 0,0
23.03.2019 19:00:00 7,2 -3,0 8 4 27 15 NNE 20 1 -
23.03.2019 18:00:00 9,1 -3,6 7 4 30 16 NE 20 30 0,0
23.03.2019 17:00:00 8,7 -3,3 7 4 26 14 W 20 8 0,0
23.03.2019 16:00:00 8,7 -3,9 11 6 32 18 E 20 17 0,0
23.03.2019 15:00:00 9,3 -3,9 9 5 30 16 NE 20 18 0,0
23.03.2019 14:00:00 9,3 -3,9 9 5 32 17 ENE 20 39 0,0
23.03.2019 13:00:00 10,4 -6,0 13 7 34 18 SSW 20 60 -
23.03.2019 12:00:00 8,1 -4,8 16 8 35 19 NE 20 56 0,0
23.03.2019 11:00:00 8,5 -3,3 7 4 25 13 S 20 60 0,0
23.03.2019 10:00:00 7,8 -3,6 6 4 26 14 S 20 42 0,0
23.03.2019 09:00:00 4,4 -3,9 10 5 25 13 WNW 20 0 0,0
23.03.2019 08:00:00 3,8 -2,7 8 4 20 11 SW 20 0 0,0
23.03.2019 07:00:00 3,4 -3,0 9 5 24 13 SSW 20 0 -
23.03.2019 06:00:00 3,6 -2,7 10 6 23 12 S 20 0 0,0
23.03.2019 05:00:00 4,0 -2,7 11 6 22 12 SSE 20 0 0,0
23.03.2019 04:00:00 4,1 -2,2 13 7 36 19 SW 20 0 0,0
23.03.2019 03:00:00 3,7 -2,0 24 13 41 22 SSW 20 0 0,0
23.03.2019 02:00:00 3,0 -1,7 22 12 40 22 S 20 0 0,0
23.03.2019 01:00:00 3,3 -2,0 26 14 50 27 S 20 0 -
23.03.2019 00:00:00 3,8 -3,3 31 17 44 24 S 20 0 0,0
22.03.2019 23:00:00 4,8 -3,3 22 12 36 19 SSE 20 0 0,0
22.03.2019 22:00:00 5,0 -3,9 22 12 41 22 S 20 0 0,0
22.03.2019 21:00:00 5,1 -3,9 18 10 42 23 S 20 0 0,0
22.03.2019 20:00:00 5,1 -4,2 8 4 29 15 SW 20 0 0,0
22.03.2019 19:00:00 6,2 -4,8 10 5 27 15 S 20 31 -
22.03.2019 18:00:00 9,0 -6,7 8 5 29 16 S 20 60 0,0
22.03.2019 17:00:00 9,9 -6,7 9 5 33 18 WSW 20 60 0,0
22.03.2019 16:00:00 10,5 -6,7 8 4 26 14 N 20 60 0,0
22.03.2019 15:00:00 10,3 -6,4 10 5 27 15 W 20 60 0,0
22.03.2019 14:00:00 10,8 -6,0 4 2 25 14 S 20 60 0,0
22.03.2019 13:00:00 9,1 -5,1 10 6 16 9 S 20 60 -
22.03.2019 12:00:00 7,8 -6,7 6 4 21 11 NE 20 60 0,0
22.03.2019 11:00:00 7,9 -7,1 4 2 8 4 S 20 60 0,0
22.03.2019 10:00:00 5,0 -7,1 5 3 10 5 SE 20 40 0,0
22.03.2019 09:00:00 -0,1 -7,5 6 3 13 7 SSE 20 0 0,0
22.03.2019 08:00:00 -0,5 -7,5 7 4 14 8 SSE 20 0 0,0
22.03.2019 07:00:00 -1,0 -7,5 10 5 17 9 SE 20 0 -
22.03.2019 06:00:00 -0,3 -7,1 10 6 16 8 SSE 20 0 0,0
22.03.2019 05:00:00 0,0 -7,5 8 5 16 9 SSE 20 0 0,0
22.03.2019 04:00:00 0,4 -8,2 10 6 18 10 S 20 0 0,0
22.03.2019 03:00:00 0,5 -7,8 16 9 31 17 SSE 20 0 0,0
22.03.2019 02:00:00 0,7 -7,5 22 12 34 19 S 20 0 0,0
22.03.2019 01:00:00 1,0 -7,5 28 15 36 20 S 20 0 -
22.03.2019 00:00:00 1,6 -7,1 26 14 33 18 SSE 20 0 0,0
21.03.2019 23:00:00 1,7 -8,6 27 15 36 19 SSE 20 0 0,0
21.03.2019 22:00:00 1,9 -8,2 22 12 29 16 S 20 0 0,0
21.03.2019 21:00:00 1,7 -6,0 17 9 28 15 S 20 0 0,0
21.03.2019 20:00:00 1,9 -5,7 22 12 30 16 S 20 0 0,0
21.03.2019 19:00:00 3,5 -6,0 5 3 8 5 S 20 12 -
21.03.2019 18:00:00 7,0 -6,7 5 3 10 6 NW 20 36 0,0
21.03.2019 17:00:00 6,5 -5,7 5 3 14 7 SSW 20 11 0,0
21.03.2019 16:00:00 6,3 -6,4 5 3 17 9 E 20 31 0,0
21.03.2019 15:00:00 5,7 -7,5 6 4 19 10 NE 20 40 0,0
21.03.2019 14:00:00 6,3 -6,0 3 1 18 10 N 20 52 0,0
21.03.2019 13:00:00 4,8 -6,4 8 5 18 10 N 20 59 -
21.03.2019 12:00:00 4,9 -6,7 6 3 13 7 N 20 60 0,0
21.03.2019 11:00:00 4,0 -7,5 9 5 12 6 SSE 20 60 0,0
21.03.2019 10:00:00 2,1 -10,8 4 2 10 5 ESE 20 38 0,0
21.03.2019 09:00:00 -1,5 -12,2 3 2 9 5 SE 20 0 0,0
21.03.2019 08:00:00 -1,9 -11,2 4 2 10 5 SSW 20 0 0,0
21.03.2019 07:00:00 -1,2 -12,2 4 2 21 11 SW 20 0 -
21.03.2019 06:00:00 -0,9 -12,8 8 5 23 12 S 20 0 0,0
21.03.2019 05:00:00 -1,3 -9,0 26 14 47 25 S 20 0 0,0
21.03.2019 04:00:00 -0,7 -10,3 39 21 50 27 S 20 0 0,0
21.03.2019 03:00:00 -0,7 -9,4 40 22 52 28 S 20 0 0,0
21.03.2019 02:00:00 -0,4 -8,2 44 24 56 30 S 20 0 0,0
21.03.2019 01:00:00 1,5 -15,8 29 16 55 30 S 20 0 -
21.03.2019 00:00:00 1,5 -15,1 27 14 41 22 SSE 20 0 0,0
20.03.2019 23:00:00 1,3 -9,0 26 14 43 23 SSE 20 0 0,0
20.03.2019 22:00:00 -0,3 -7,1 29 15 46 25 SSE 20 0 0,0
20.03.2019 21:00:00 1,2 -7,5 28 15 42 23 SSE 20 0 0,0
20.03.2019 20:00:00 1,8 -7,8 18 10 24 13 SE 20 0 0,0
20.03.2019 19:00:00 2,4 -9,4 6 3 21 12 E 20 24 -
20.03.2019 18:00:00 4,6 -9,0 10 5 28 15 E 20 60 0,0
20.03.2019 17:00:00 5,8 -9,4 9 5 27 15 E 20 60 0,0
20.03.2019 16:00:00 6,1 -8,2 8 4 29 16 SE 20 60 0,0
20.03.2019 15:00:00 6,4 -9,0 8 4 27 14 NNW 20 60 0,0
20.03.2019 14:00:00 4,8 -7,8 13 7 44 24 E 20 60 0,0
20.03.2019 13:00:00 4,1 -7,8 13 7 26 14 NNE 20 60 -
20.03.2019 12:00:00 4,7 -7,5 3 2 17 9 ESE 20 60 0,0
20.03.2019 11:00:00 1,5 -9,4 12 7 26 14 NNE 20 60 0,0
20.03.2019 10:00:00 0,5 -7,5 6 3 35 19 W 20 35 0,0
20.03.2019 09:00:00 -3,9 -7,8 4 2 24 13 W 20 0 0,0
20.03.2019 08:00:00 -4,6 -6,7 8 4 27 15 WNW 20 0 0,0
20.03.2019 07:00:00 -4,7 -6,4 13 7 24 13 WSW 20 0 -
20.03.2019 06:00:00 -4,6 -6,7 4 2 23 12 NW 20 0 0,0
20.03.2019 05:00:00 -4,0 -6,4 7 4 23 12 E 20 0 0,0
20.03.2019 04:00:00 -4,2 -4,5 8 4 20 11 NNE 20 0 0,0
20.03.2019 03:00:00 -3,8 -4,2 4 2 16 9 WNW 2,0 0 0,0
20.03.2019 02:00:00 -3,8 -4,5 8 4 17 9 NW 20 0 0,0
20.03.2019 01:00:00 -4,0 -4,5 8 4 28 15 N 20 0 -
20.03.2019 00:00:00 -3,8 -4,5 16 9 36 19 NNE 20 0 0,0
19.03.2019 23:00:00 -3,1 -3,6 19 10 36 19 NNE 20 0 0,0
19.03.2019 22:00:00 -2,9 -3,6 16 8 28 15 NNE 20 0 0,0
19.03.2019 21:00:00 -2,0 -3,0 17 9 37 20 NNE 20 0 0,0
19.03.2019 20:00:00 -1,4 -3,6 21 12 50 27 NNE 20 0 0,0
19.03.2019 19:00:00 0,0 -3,3 36 19 55 30 N 20 17 -
19.03.2019 18:00:00 1,3 -2,5 35 19 56 31 NNE 20 14 0,0

tt = temperature
td = dewpoint
ff = wind speed
fx = gusts
dd = wind direction
vv = visibility
sd = sunshine duration
rr = precipitation

Next stations